sensor_id;sensor_type;location;lat;lon;timestamp;P1;durP1;ratioP1;P2;durP2;ratioP2
5412;SDS011;2729;50.056;8.678;2023-04-25T00:01:45;3.93;;;3.63;;
5412;SDS011;2729;50.056;8.678;2023-04-25T00:04:11;3.37;;;3.07;;
5412;SDS011;2729;50.056;8.678;2023-04-25T00:06:37;3.90;;;3.40;;
5412;SDS011;2729;50.056;8.678;2023-04-25T00:09:03;4.20;;;3.37;;
5412;SDS011;2729;50.056;8.678;2023-04-25T00:11:33;3.40;;;3.07;;
5412;SDS011;2729;50.056;8.678;2023-04-25T00:13:59;4.03;;;3.47;;
5412;SDS011;2729;50.056;8.678;2023-04-25T00:16:28;5.53;;;3.03;;
5412;SDS011;2729;50.056;8.678;2023-04-25T00:18:56;3.27;;;2.83;;
5412;SDS011;2729;50.056;8.678;2023-04-25T00:21:22;3.63;;;3.03;;
5412;SDS011;2729;50.056;8.678;2023-04-25T00:23:50;4.40;;;3.30;;
5412;SDS011;2729;50.056;8.678;2023-04-25T00:26:15;5.77;;;2.87;;
5412;SDS011;2729;50.056;8.678;2023-04-25T00:28:41;3.37;;;3.07;;
5412;SDS011;2729;50.056;8.678;2023-04-25T00:31:07;3.17;;;2.87;;
5412;SDS011;2729;50.056;8.678;2023-04-25T00:33:33;3.00;;;2.80;;
5412;SDS011;2729;50.056;8.678;2023-04-25T00:36:00;2.50;;;2.30;;
5412;SDS011;2729;50.056;8.678;2023-04-25T00:38:26;2.73;;;2.53;;
5412;SDS011;2729;50.056;8.678;2023-04-25T00:40:52;2.70;;;2.50;;
5412;SDS011;2729;50.056;8.678;2023-04-25T00:43:18;3.47;;;2.50;;
5412;SDS011;2729;50.056;8.678;2023-04-25T00:45:45;2.97;;;2.77;;
5412;SDS011;2729;50.056;8.678;2023-04-25T00:48:13;4.40;;;2.83;;
5412;SDS011;2729;50.056;8.678;2023-04-25T00:50:40;3.00;;;2.60;;
5412;SDS011;2729;50.056;8.678;2023-04-25T00:53:06;3.80;;;2.90;;
5412;SDS011;2729;50.056;8.678;2023-04-25T00:55:33;3.30;;;2.97;;
5412;SDS011;2729;50.056;8.678;2023-04-25T00:58:01;2.87;;;2.50;;
5412;SDS011;2729;50.056;8.678;2023-04-25T01:00:27;6.03;;;2.73;;
5412;SDS011;2729;50.056;8.678;2023-04-25T01:02:53;3.80;;;2.80;;
5412;SDS011;2729;50.056;8.678;2023-04-25T01:05:20;2.80;;;2.60;;
5412;SDS011;2729;50.056;8.678;2023-04-25T01:07:46;3.33;;;2.70;;
5412;SDS011;2729;50.056;8.678;2023-04-25T01:10:12;3.80;;;3.20;;
5412;SDS011;2729;50.056;8.678;2023-04-25T01:12:39;3.13;;;2.90;;
5412;SDS011;2729;50.056;8.678;2023-04-25T01:15:05;3.73;;;2.80;;
5412;SDS011;2729;50.056;8.678;2023-04-25T01:17:32;3.33;;;2.70;;
5412;SDS011;2729;50.056;8.678;2023-04-25T01:20:01;3.77;;;3.20;;
5412;SDS011;2729;50.056;8.678;2023-04-25T01:22:29;2.97;;;2.67;;
5412;SDS011;2729;50.056;8.678;2023-04-25T01:24:56;3.60;;;3.30;;
5412;SDS011;2729;50.056;8.678;2023-04-25T01:27:22;3.47;;;3.17;;
5412;SDS011;2729;50.056;8.678;2023-04-25T01:29:48;2.80;;;2.60;;
5412;SDS011;2729;50.056;8.678;2023-04-25T01:32:15;5.00;;;3.00;;
5412;SDS011;2729;50.056;8.678;2023-04-25T01:34:41;3.83;;;3.23;;
5412;SDS011;2729;50.056;8.678;2023-04-25T01:37:08;3.63;;;3.07;;
5412;SDS011;2729;50.056;8.678;2023-04-25T01:39:34;3.03;;;2.80;;
5412;SDS011;2729;50.056;8.678;2023-04-25T01:41:59;3.93;;;3.37;;
5412;SDS011;2729;50.056;8.678;2023-04-25T01:44:26;3.47;;;3.17;;
5412;SDS011;2729;50.056;8.678;2023-04-25T01:46:52;3.50;;;3.20;;
5412;SDS011;2729;50.056;8.678;2023-04-25T01:49:19;4.63;;;3.43;;
5412;SDS011;2729;50.056;8.678;2023-04-25T01:51:45;3.17;;;2.87;;
5412;SDS011;2729;50.056;8.678;2023-04-25T01:54:11;4.50;;;3.60;;
5412;SDS011;2729;50.056;8.678;2023-04-25T01:56:39;3.17;;;2.87;;
5412;SDS011;2729;50.056;8.678;2023-04-25T01:59:07;4.37;;;3.80;;
5412;SDS011;2729;50.056;8.678;2023-04-25T02:01:35;4.50;;;4.10;;
5412;SDS011;2729;50.056;8.678;2023-04-25T02:04:15;4.23;;;3.40;;
5412;SDS011;2729;50.056;8.678;2023-04-25T02:06:41;5.90;;;2.90;;
5412;SDS011;2729;50.056;8.678;2023-04-25T02:09:07;9.60;;;3.97;;
5412;SDS011;2729;50.056;8.678;2023-04-25T02:11:33;4.27;;;3.20;;
5412;SDS011;2729;50.056;8.678;2023-04-25T02:14:16;4.53;;;3.60;;
5412;SDS011;2729;50.056;8.678;2023-04-25T02:17:05;5.50;;;3.20;;
5412;SDS011;2729;50.056;8.678;2023-04-25T02:19:32;4.53;;;3.73;;
5412;SDS011;2729;50.056;8.678;2023-04-25T02:21:58;5.70;;;4.00;;
5412;SDS011;2729;50.056;8.678;2023-04-25T02:24:25;3.50;;;3.10;;
5412;SDS011;2729;50.056;8.678;2023-04-25T02:26:54;4.13;;;3.40;;
5412;SDS011;2729;50.056;8.678;2023-04-25T02:29:23;5.00;;;3.80;;
5412;SDS011;2729;50.056;8.678;2023-04-25T02:31:49;4.47;;;4.03;;
5412;SDS011;2729;50.056;8.678;2023-04-25T02:34:16;5.20;;;3.07;;
5412;SDS011;2729;50.056;8.678;2023-04-25T02:36:42;6.43;;;3.80;;
5412;SDS011;2729;50.056;8.678;2023-04-25T02:39:08;4.27;;;3.83;;
5412;SDS011;2729;50.056;8.678;2023-04-25T02:41:34;5.37;;;4.10;;
5412;SDS011;2729;50.056;8.678;2023-04-25T02:44:00;4.07;;;3.67;;
5412;SDS011;2729;50.056;8.678;2023-04-25T02:46:26;5.20;;;4.20;;
5412;SDS011;2729;50.056;8.678;2023-04-25T02:48:52;6.70;;;3.93;;
5412;SDS011;2729;50.056;8.678;2023-04-25T02:51:18;5.33;;;3.73;;
5412;SDS011;2729;50.056;8.678;2023-04-25T02:53:45;6.30;;;3.73;;
5412;SDS011;2729;50.056;8.678;2023-04-25T02:56:11;4.90;;;4.40;;
5412;SDS011;2729;50.056;8.678;2023-04-25T02:58:37;5.43;;;3.90;;
5412;SDS011;2729;50.056;8.678;2023-04-25T03:01:03;4.70;;;3.70;;
5412;SDS011;2729;50.056;8.678;2023-04-25T03:03:29;5.23;;;4.03;;
5412;SDS011;2729;50.056;8.678;2023-04-25T03:05:55;9.97;;;4.77;;
5412;SDS011;2729;50.056;8.678;2023-04-25T03:08:28;5.10;;;3.87;;
5412;SDS011;2729;50.056;8.678;2023-04-25T03:10:58;7.50;;;4.23;;
5412;SDS011;2729;50.056;8.678;2023-04-25T03:13:25;8.23;;;5.30;;
5412;SDS011;2729;50.056;8.678;2023-04-25T03:15:51;4.80;;;4.30;;
5412;SDS011;2729;50.056;8.678;2023-04-25T03:18:18;5.00;;;4.50;;
5412;SDS011;2729;50.056;8.678;2023-04-25T03:20:44;6.13;;;4.67;;
5412;SDS011;2729;50.056;8.678;2023-04-25T03:23:10;6.57;;;4.50;;
5412;SDS011;2729;50.056;8.678;2023-04-25T03:25:39;7.10;;;4.53;;
5412;SDS011;2729;50.056;8.678;2023-04-25T03:28:06;5.20;;;4.27;;
5412;SDS011;2729;50.056;8.678;2023-04-25T03:30:32;10.83;;;4.53;;
5412;SDS011;2729;50.056;8.678;2023-04-25T03:32:58;11.77;;;4.40;;
5412;SDS011;2729;50.056;8.678;2023-04-25T03:35:24;11.77;;;4.43;;
5412;SDS011;2729;50.056;8.678;2023-04-25T03:37:50;7.43;;;4.13;;
5412;SDS011;2729;50.056;8.678;2023-04-25T03:40:22;8.43;;;4.10;;
5412;SDS011;2729;50.056;8.678;2023-04-25T03:43:11;5.77;;;3.87;;
5412;SDS011;2729;50.056;8.678;2023-04-25T03:45:40;9.00;;;3.93;;
5412;SDS011;2729;50.056;8.678;2023-04-25T03:48:06;8.07;;;4.30;;
5412;SDS011;2729;50.056;8.678;2023-04-25T03:50:32;10.90;;;5.53;;
5412;SDS011;2729;50.056;8.678;2023-04-25T03:52:59;8.03;;;5.10;;
5412;SDS011;2729;50.056;8.678;2023-04-25T03:55:27;7.10;;;3.63;;
5412;SDS011;2729;50.056;8.678;2023-04-25T03:57:53;14.00;;;4.67;;
5412;SDS011;2729;50.056;8.678;2023-04-25T04:00:19;7.27;;;4.27;;
5412;SDS011;2729;50.056;8.678;2023-04-25T04:02:50;7.37;;;4.20;;
5412;SDS011;2729;50.056;8.678;2023-04-25T04:05:16;4.60;;;3.17;;
5412;SDS011;2729;50.056;8.678;2023-04-25T04:07:49;4.27;;;3.40;;
5412;SDS011;2729;50.056;8.678;2023-04-25T04:10:16;7.43;;;4.70;;
5412;SDS011;2729;50.056;8.678;2023-04-25T04:12:43;6.80;;;3.63;;
5412;SDS011;2729;50.056;8.678;2023-04-25T04:15:10;9.80;;;4.43;;
5412;SDS011;2729;50.056;8.678;2023-04-25T04:17:37;6.43;;;3.87;;
5412;SDS011;2729;50.056;8.678;2023-04-25T04:20:04;5.90;;;3.83;;
5412;SDS011;2729;50.056;8.678;2023-04-25T04:22:31;7.73;;;3.90;;
5412;SDS011;2729;50.056;8.678;2023-04-25T04:25:01;7.30;;;4.23;;
5412;SDS011;2729;50.056;8.678;2023-04-25T04:27:51;13.40;;;4.30;;
5412;SDS011;2729;50.056;8.678;2023-04-25T04:30:38;7.67;;;4.80;;
5412;SDS011;2729;50.056;8.678;2023-04-25T04:33:08;7.83;;;5.17;;
5412;SDS011;2729;50.056;8.678;2023-04-25T04:35:34;11.03;;;3.97;;
5412;SDS011;2729;50.056;8.678;2023-04-25T04:38:00;5.87;;;4.30;;
5412;SDS011;2729;50.056;8.678;2023-04-25T04:40:30;6.43;;;3.87;;
5412;SDS011;2729;50.056;8.678;2023-04-25T04:43:23;8.30;;;4.33;;
5412;SDS011;2729;50.056;8.678;2023-04-25T04:46:07;8.83;;;4.47;;
5412;SDS011;2729;50.056;8.678;2023-04-25T04:48:50;5.00;;;4.03;;
5412;SDS011;2729;50.056;8.678;2023-04-25T04:51:54;8.27;;;4.50;;
5412;SDS011;2729;50.056;8.678;2023-04-25T04:54:35;8.63;;;4.50;;
5412;SDS011;2729;50.056;8.678;2023-04-25T04:57:13;12.30;;;5.00;;
5412;SDS011;2729;50.056;8.678;2023-04-25T04:59:59;8.07;;;4.63;;
5412;SDS011;2729;50.056;8.678;2023-04-25T05:02:54;8.97;;;4.83;;
5412;SDS011;2729;50.056;8.678;2023-04-25T05:05:34;14.07;;;4.57;;
5412;SDS011;2729;50.056;8.678;2023-04-25T05:08:11;8.03;;;4.47;;
5412;SDS011;2729;50.056;8.678;2023-04-25T05:10:53;8.47;;;4.77;;
5412;SDS011;2729;50.056;8.678;2023-04-25T05:13:31;9.53;;;4.70;;
5412;SDS011;2729;50.056;8.678;2023-04-25T05:15:57;8.20;;;4.90;;
5412;SDS011;2729;50.056;8.678;2023-04-25T05:18:48;11.57;;;4.90;;
5412;SDS011;2729;50.056;8.678;2023-04-25T05:21:41;14.73;;;5.10;;
5412;SDS011;2729;50.056;8.678;2023-04-25T05:24:29;10.97;;;4.87;;
5412;SDS011;2729;50.056;8.678;2023-04-25T05:27:27;6.40;;;4.50;;
5412;SDS011;2729;50.056;8.678;2023-04-25T05:29:53;8.47;;;4.47;;
5412;SDS011;2729;50.056;8.678;2023-04-25T05:32:26;16.77;;;5.20;;
5412;SDS011;2729;50.056;8.678;2023-04-25T05:34:53;9.47;;;4.60;;
5412;SDS011;2729;50.056;8.678;2023-04-25T05:37:27;7.87;;;5.00;;
5412;SDS011;2729;50.056;8.678;2023-04-25T05:40:04;13.60;;;4.93;;
5412;SDS011;2729;50.056;8.678;2023-04-25T05:42:52;17.93;;;5.23;;
5412;SDS011;2729;50.056;8.678;2023-04-25T05:45:37;10.90;;;5.50;;
5412;SDS011;2729;50.056;8.678;2023-04-25T05:48:27;17.77;;;5.50;;
5412;SDS011;2729;50.056;8.678;2023-04-25T05:51:06;8.77;;;4.47;;
5412;SDS011;2729;50.056;8.678;2023-04-25T05:53:43;8.40;;;4.50;;
5412;SDS011;2729;50.056;8.678;2023-04-25T05:56:09;6.77;;;4.30;;
5412;SDS011;2729;50.056;8.678;2023-04-25T05:58:34;9.90;;;4.80;;
5412;SDS011;2729;50.056;8.678;2023-04-25T06:01:02;11.70;;;5.00;;
5412;SDS011;2729;50.056;8.678;2023-04-25T06:03:28;5.80;;;4.20;;
5412;SDS011;2729;50.056;8.678;2023-04-25T06:05:56;8.87;;;4.63;;
5412;SDS011;2729;50.056;8.678;2023-04-25T06:08:22;8.60;;;4.60;;
5412;SDS011;2729;50.056;8.678;2023-04-25T06:10:48;15.87;;;5.70;;
5412;SDS011;2729;50.056;8.678;2023-04-25T06:13:14;10.50;;;5.50;;
5412;SDS011;2729;50.056;8.678;2023-04-25T06:15:41;9.80;;;4.00;;
5412;SDS011;2729;50.056;8.678;2023-04-25T06:18:07;5.00;;;3.77;;
5412;SDS011;2729;50.056;8.678;2023-04-25T06:20:33;10.73;;;5.07;;
5412;SDS011;2729;50.056;8.678;2023-04-25T06:23:00;11.10;;;4.13;;
5412;SDS011;2729;50.056;8.678;2023-04-25T06:25:36;8.20;;;4.30;;
5412;SDS011;2729;50.056;8.678;2023-04-25T06:28:02;8.10;;;4.17;;
5412;SDS011;2729;50.056;8.678;2023-04-25T06:30:28;8.00;;;5.03;;
5412;SDS011;2729;50.056;8.678;2023-04-25T06:33:01;12.73;;;4.77;;
5412;SDS011;2729;50.056;8.678;2023-04-25T06:35:28;9.03;;;4.10;;
5412;SDS011;2729;50.056;8.678;2023-04-25T06:37:54;6.93;;;4.10;;
5412;SDS011;2729;50.056;8.678;2023-04-25T06:40:22;8.93;;;4.57;;
5412;SDS011;2729;50.056;8.678;2023-04-25T06:42:48;5.10;;;3.93;;
5412;SDS011;2729;50.056;8.678;2023-04-25T06:45:32;7.50;;;4.00;;
5412;SDS011;2729;50.056;8.678;2023-04-25T06:47:58;14.20;;;5.30;;
5412;SDS011;2729;50.056;8.678;2023-04-25T06:50:24;5.70;;;4.00;;
5412;SDS011;2729;50.056;8.678;2023-04-25T06:52:51;10.00;;;4.60;;
5412;SDS011;2729;50.056;8.678;2023-04-25T06:55:18;9.63;;;4.63;;
5412;SDS011;2729;50.056;8.678;2023-04-25T06:57:59;13.70;;;4.17;;
5412;SDS011;2729;50.056;8.678;2023-04-25T07:00:45;8.60;;;4.87;;
5412;SDS011;2729;50.056;8.678;2023-04-25T07:03:11;7.60;;;4.60;;
5412;SDS011;2729;50.056;8.678;2023-04-25T07:05:37;12.30;;;4.00;;
5412;SDS011;2729;50.056;8.678;2023-04-25T07:08:03;6.63;;;3.97;;
5412;SDS011;2729;50.056;8.678;2023-04-25T07:10:29;10.90;;;4.13;;
5412;SDS011;2729;50.056;8.678;2023-04-25T07:12:56;7.83;;;3.60;;
5412;SDS011;2729;50.056;8.678;2023-04-25T07:15:22;7.57;;;4.00;;
5412;SDS011;2729;50.056;8.678;2023-04-25T07:17:48;4.60;;;3.30;;
5412;SDS011;2729;50.056;8.678;2023-04-25T07:20:14;5.47;;;3.60;;
5412;SDS011;2729;50.056;8.678;2023-04-25T07:22:41;4.47;;;3.23;;
5412;SDS011;2729;50.056;8.678;2023-04-25T07:25:08;4.20;;;3.17;;
5412;SDS011;2729;50.056;8.678;2023-04-25T07:27:34;6.20;;;2.77;;
5412;SDS011;2729;50.056;8.678;2023-04-25T07:30:12;4.80;;;3.00;;
5412;SDS011;2729;50.056;8.678;2023-04-25T07:32:38;4.40;;;2.70;;
5412;SDS011;2729;50.056;8.678;2023-04-25T07:35:05;4.00;;;2.73;;
5412;SDS011;2729;50.056;8.678;2023-04-25T07:37:33;8.37;;;2.90;;
5412;SDS011;2729;50.056;8.678;2023-04-25T07:40:08;7.67;;;2.60;;
5412;SDS011;2729;50.056;8.678;2023-04-25T07:42:36;6.13;;;3.00;;
5412;SDS011;2729;50.056;8.678;2023-04-25T07:45:04;5.53;;;2.60;;
5412;SDS011;2729;50.056;8.678;2023-04-25T07:47:30;4.03;;;2.60;;
5412;SDS011;2729;50.056;8.678;2023-04-25T07:49:56;5.40;;;2.60;;
5412;SDS011;2729;50.056;8.678;2023-04-25T07:52:23;6.83;;;2.70;;
5412;SDS011;2729;50.056;8.678;2023-04-25T07:54:56;4.60;;;2.53;;
5412;SDS011;2729;50.056;8.678;2023-04-25T07:57:31;2.53;;;2.33;;
5412;SDS011;2729;50.056;8.678;2023-04-25T07:59:57;4.73;;;2.73;;
5412;SDS011;2729;50.056;8.678;2023-04-25T08:02:24;3.53;;;2.73;;
5412;SDS011;2729;50.056;8.678;2023-04-25T08:04:54;5.17;;;2.90;;
5412;SDS011;2729;50.056;8.678;2023-04-25T08:07:21;4.50;;;2.30;;
5412;SDS011;2729;50.056;8.678;2023-04-25T08:09:51;3.23;;;2.60;;
5412;SDS011;2729;50.056;8.678;2023-04-25T08:12:24;4.50;;;3.10;;
5412;SDS011;2729;50.056;8.678;2023-04-25T08:14:50;3.87;;;2.80;;
5412;SDS011;2729;50.056;8.678;2023-04-25T08:17:17;4.17;;;2.73;;
5412;SDS011;2729;50.056;8.678;2023-04-25T08:19:42;2.93;;;2.60;;
5412;SDS011;2729;50.056;8.678;2023-04-25T08:22:16;2.87;;;2.63;;
5412;SDS011;2729;50.056;8.678;2023-04-25T08:24:51;3.43;;;2.37;;
5412;SDS011;2729;50.056;8.678;2023-04-25T08:27:18;6.83;;;2.37;;
5412;SDS011;2729;50.056;8.678;2023-04-25T08:29:44;2.37;;;2.23;;
5412;SDS011;2729;50.056;8.678;2023-04-25T08:32:10;2.97;;;2.20;;
5412;SDS011;2729;50.056;8.678;2023-04-25T08:34:41;2.73;;;2.20;;
5412;SDS011;2729;50.056;8.678;2023-04-25T08:37:08;3.93;;;2.30;;
5412;SDS011;2729;50.056;8.678;2023-04-25T08:39:56;2.77;;;2.27;;
5412;SDS011;2729;50.056;8.678;2023-04-25T08:42:58;2.80;;;2.37;;
5412;SDS011;2729;50.056;8.678;2023-04-25T08:45:28;4.17;;;2.17;;
5412;SDS011;2729;50.056;8.678;2023-04-25T08:47:58;5.50;;;2.50;;
5412;SDS011;2729;50.056;8.678;2023-04-25T08:50:24;5.00;;;2.40;;
5412;SDS011;2729;50.056;8.678;2023-04-25T08:52:52;3.93;;;2.00;;
5412;SDS011;2729;50.056;8.678;2023-04-25T08:55:20;3.00;;;2.23;;
5412;SDS011;2729;50.056;8.678;2023-04-25T08:57:49;4.80;;;2.60;;
5412;SDS011;2729;50.056;8.678;2023-04-25T09:00:16;1.83;;;1.70;;
5412;SDS011;2729;50.056;8.678;2023-04-25T09:02:45;2.57;;;1.90;;
5412;SDS011;2729;50.056;8.678;2023-04-25T09:05:13;2.20;;;2.00;;
5412;SDS011;2729;50.056;8.678;2023-04-25T09:07:40;5.33;;;2.20;;
5412;SDS011;2729;50.056;8.678;2023-04-25T09:10:06;2.10;;;2.00;;
5412;SDS011;2729;50.056;8.678;2023-04-25T09:12:35;2.33;;;1.93;;
5412;SDS011;2729;50.056;8.678;2023-04-25T09:15:09;4.60;;;1.80;;
5412;SDS011;2729;50.056;8.678;2023-04-25T09:18:01;2.60;;;1.80;;
5412;SDS011;2729;50.056;8.678;2023-04-25T09:20:32;4.93;;;2.30;;
5412;SDS011;2729;50.056;8.678;2023-04-25T09:23:08;3.43;;;2.30;;
5412;SDS011;2729;50.056;8.678;2023-04-25T09:25:37;3.40;;;2.60;;
5412;SDS011;2729;50.056;8.678;2023-04-25T09:28:06;4.17;;;2.90;;
5412;SDS011;2729;50.056;8.678;2023-04-25T09:30:33;2.23;;;2.03;;
5412;SDS011;2729;50.056;8.678;2023-04-25T09:33:10;3.33;;;2.10;;
5412;SDS011;2729;50.056;8.678;2023-04-25T09:35:39;3.97;;;2.30;;
5412;SDS011;2729;50.056;8.678;2023-04-25T09:38:12;2.50;;;2.30;;
5412;SDS011;2729;50.056;8.678;2023-04-25T09:41:03;2.40;;;2.20;;
5412;SDS011;2729;50.056;8.678;2023-04-25T09:43:39;4.10;;;2.53;;
5412;SDS011;2729;50.056;8.678;2023-04-25T09:46:09;3.73;;;2.10;;
5412;SDS011;2729;50.056;8.678;2023-04-25T09:48:39;6.13;;;2.60;;
5412;SDS011;2729;50.056;8.678;2023-04-25T09:51:06;4.83;;;2.73;;
5412;SDS011;2729;50.056;8.678;2023-04-25T09:53:37;3.17;;;2.70;;
5412;SDS011;2729;50.056;8.678;2023-04-25T09:56:20;5.40;;;2.80;;
5412;SDS011;2729;50.056;8.678;2023-04-25T09:58:48;4.33;;;2.70;;
5412;SDS011;2729;50.056;8.678;2023-04-25T10:01:17;4.40;;;2.70;;
5412;SDS011;2729;50.056;8.678;2023-04-25T10:04:04;4.50;;;2.77;;
5412;SDS011;2729;50.056;8.678;2023-04-25T10:06:44;5.93;;;2.60;;
5412;SDS011;2729;50.056;8.678;2023-04-25T10:09:14;3.60;;;2.00;;
5412;SDS011;2729;50.056;8.678;2023-04-25T10:11:41;2.43;;;2.20;;
5412;SDS011;2729;50.056;8.678;2023-04-25T10:14:08;6.57;;;2.87;;
5412;SDS011;2729;50.056;8.678;2023-04-25T10:16:35;3.13;;;2.53;;
5412;SDS011;2729;50.056;8.678;2023-04-25T10:19:01;3.20;;;2.57;;
5412;SDS011;2729;50.056;8.678;2023-04-25T10:21:28;2.40;;;2.20;;
5412;SDS011;2729;50.056;8.678;2023-04-25T10:23:57;2.07;;;1.97;;
5412;SDS011;2729;50.056;8.678;2023-04-25T10:26:23;2.60;;;2.40;;
5412;SDS011;2729;50.056;8.678;2023-04-25T10:29:02;2.53;;;2.20;;
5412;SDS011;2729;50.056;8.678;2023-04-25T10:31:29;2.80;;;2.53;;
5412;SDS011;2729;50.056;8.678;2023-04-25T10:33:56;2.77;;;2.40;;
5412;SDS011;2729;50.056;8.678;2023-04-25T10:36:23;2.57;;;2.20;;
5412;SDS011;2729;50.056;8.678;2023-04-25T10:38:50;3.30;;;2.23;;
5412;SDS011;2729;50.056;8.678;2023-04-25T10:41:20;3.77;;;2.43;;
5412;SDS011;2729;50.056;8.678;2023-04-25T10:43:48;2.57;;;2.37;;
5412;SDS011;2729;50.056;8.678;2023-04-25T10:46:16;3.90;;;2.83;;
5412;SDS011;2729;50.056;8.678;2023-04-25T10:48:50;2.23;;;2.10;;
5412;SDS011;2729;50.056;8.678;2023-04-25T10:51:23;2.73;;;2.53;;
5412;SDS011;2729;50.056;8.678;2023-04-25T10:56:22;5.20;;;2.47;;
5412;SDS011;2729;50.056;8.678;2023-04-25T10:58:48;3.20;;;2.80;;
5412;SDS011;2729;50.056;8.678;2023-04-25T11:01:15;6.47;;;2.73;;
5412;SDS011;2729;50.056;8.678;2023-04-25T11:03:56;4.30;;;2.60;;
5412;SDS011;2729;50.056;8.678;2023-04-25T11:06:27;4.03;;;2.40;;
5412;SDS011;2729;50.056;8.678;2023-04-25T11:08:59;4.77;;;2.80;;
5412;SDS011;2729;50.056;8.678;2023-04-25T11:11:26;5.20;;;2.57;;
5412;SDS011;2729;50.056;8.678;2023-04-25T11:13:54;4.23;;;2.77;;
5412;SDS011;2729;50.056;8.678;2023-04-25T11:16:20;4.07;;;2.80;;
5412;SDS011;2729;50.056;8.678;2023-04-25T11:18:50;6.10;;;2.77;;
5412;SDS011;2729;50.056;8.678;2023-04-25T11:21:16;4.93;;;2.77;;
5412;SDS011;2729;50.056;8.678;2023-04-25T11:23:44;4.63;;;2.60;;
5412;SDS011;2729;50.056;8.678;2023-04-25T11:26:12;3.97;;;2.43;;
5412;SDS011;2729;50.056;8.678;2023-04-25T11:28:39;3.67;;;2.50;;
5412;SDS011;2729;50.056;8.678;2023-04-25T11:31:05;3.07;;;2.03;;
5412;SDS011;2729;50.056;8.678;2023-04-25T11:33:31;2.10;;;2.00;;
5412;SDS011;2729;50.056;8.678;2023-04-25T11:35:57;6.17;;;3.07;;
5412;SDS011;2729;50.056;8.678;2023-04-25T11:38:24;2.50;;;2.30;;
5412;SDS011;2729;50.056;8.678;2023-04-25T11:40:52;2.27;;;2.13;;
5412;SDS011;2729;50.056;8.678;2023-04-25T11:43:22;3.83;;;2.40;;
5412;SDS011;2729;50.056;8.678;2023-04-25T11:45:49;2.33;;;2.20;;
5412;SDS011;2729;50.056;8.678;2023-04-25T11:48:16;2.33;;;2.13;;
5412;SDS011;2729;50.056;8.678;2023-04-25T11:50:43;6.30;;;1.90;;
5412;SDS011;2729;50.056;8.678;2023-04-25T11:53:09;4.23;;;2.20;;
5412;SDS011;2729;50.056;8.678;2023-04-25T11:55:36;2.57;;;2.10;;
5412;SDS011;2729;50.056;8.678;2023-04-25T11:58:02;2.60;;;2.00;;
5412;SDS011;2729;50.056;8.678;2023-04-25T12:00:29;4.73;;;2.50;;
5412;SDS011;2729;50.056;8.678;2023-04-25T12:02:56;6.37;;;2.47;;
5412;SDS011;2729;50.056;8.678;2023-04-25T12:05:29;2.53;;;2.37;;
5412;SDS011;2729;50.056;8.678;2023-04-25T12:08:09;3.93;;;2.07;;
5412;SDS011;2729;50.056;8.678;2023-04-25T12:10:37;6.00;;;2.37;;
5412;SDS011;2729;50.056;8.678;2023-04-25T12:13:24;7.73;;;2.50;;
5412;SDS011;2729;50.056;8.678;2023-04-25T12:15:51;2.97;;;2.63;;
5412;SDS011;2729;50.056;8.678;2023-04-25T12:18:20;5.93;;;2.53;;
5412;SDS011;2729;50.056;8.678;2023-04-25T12:20:48;5.90;;;2.50;;
5412;SDS011;2729;50.056;8.678;2023-04-25T12:23:14;2.20;;;2.10;;
5412;SDS011;2729;50.056;8.678;2023-04-25T12:25:41;3.83;;;2.10;;
5412;SDS011;2729;50.056;8.678;2023-04-25T12:28:11;1.93;;;1.83;;
5412;SDS011;2729;50.056;8.678;2023-04-25T12:30:57;2.47;;;2.27;;
5412;SDS011;2729;50.056;8.678;2023-04-25T12:33:28;2.70;;;2.07;;
5412;SDS011;2729;50.056;8.678;2023-04-25T12:35:55;4.93;;;2.27;;
5412;SDS011;2729;50.056;8.678;2023-04-25T12:38:23;2.63;;;2.33;;
5412;SDS011;2729;50.056;8.678;2023-04-25T12:40:57;3.93;;;2.20;;
5412;SDS011;2729;50.056;8.678;2023-04-25T12:43:23;3.60;;;2.30;;
5412;SDS011;2729;50.056;8.678;2023-04-25T12:45:50;2.93;;;2.20;;
5412;SDS011;2729;50.056;8.678;2023-04-25T12:48:17;2.07;;;1.90;;
5412;SDS011;2729;50.056;8.678;2023-04-25T12:50:44;2.83;;;2.07;;
5412;SDS011;2729;50.056;8.678;2023-04-25T12:53:10;3.07;;;2.10;;
5412;SDS011;2729;50.056;8.678;2023-04-25T12:55:37;4.17;;;2.30;;
5412;SDS011;2729;50.056;8.678;2023-04-25T12:58:03;4.43;;;2.67;;
5412;SDS011;2729;50.056;8.678;2023-04-25T13:00:29;4.80;;;2.27;;
5412;SDS011;2729;50.056;8.678;2023-04-25T13:02:56;3.67;;;2.23;;
5412;SDS011;2729;50.056;8.678;2023-04-25T13:05:22;2.50;;;2.33;;
5412;SDS011;2729;50.056;8.678;2023-04-25T13:07:48;5.10;;;2.80;;
5412;SDS011;2729;50.056;8.678;2023-04-25T13:10:14;3.60;;;2.53;;
5412;SDS011;2729;50.056;8.678;2023-04-25T13:12:39;4.60;;;2.40;;
5412;SDS011;2729;50.056;8.678;2023-04-25T13:15:06;4.10;;;2.13;;
5412;SDS011;2729;50.056;8.678;2023-04-25T13:17:34;4.40;;;2.50;;
5412;SDS011;2729;50.056;8.678;2023-04-25T13:20:00;5.27;;;2.70;;
5412;SDS011;2729;50.056;8.678;2023-04-25T13:22:26;6.23;;;2.37;;
5412;SDS011;2729;50.056;8.678;2023-04-25T13:24:52;3.27;;;2.00;;
5412;SDS011;2729;50.056;8.678;2023-04-25T13:27:18;2.47;;;2.23;;
5412;SDS011;2729;50.056;8.678;2023-04-25T13:29:44;2.10;;;1.87;;
5412;SDS011;2729;50.056;8.678;2023-04-25T13:32:10;4.20;;;2.37;;
5412;SDS011;2729;50.056;8.678;2023-04-25T13:34:36;5.10;;;2.30;;
5412;SDS011;2729;50.056;8.678;2023-04-25T13:37:02;7.77;;;2.63;;
5412;SDS011;2729;50.056;8.678;2023-04-25T13:39:28;3.60;;;2.77;;
5412;SDS011;2729;50.056;8.678;2023-04-25T13:41:54;3.70;;;2.47;;
5412;SDS011;2729;50.056;8.678;2023-04-25T13:44:20;4.07;;;2.33;;
5412;SDS011;2729;50.056;8.678;2023-04-25T13:46:46;4.47;;;2.80;;
5412;SDS011;2729;50.056;8.678;2023-04-25T13:49:12;3.47;;;3.07;;
5412;SDS011;2729;50.056;8.678;2023-04-25T13:51:38;5.33;;;2.67;;
5412;SDS011;2729;50.056;8.678;2023-04-25T13:54:04;2.73;;;2.53;;
5412;SDS011;2729;50.056;8.678;2023-04-25T13:56:30;3.23;;;2.33;;
5412;SDS011;2729;50.056;8.678;2023-04-25T13:58:56;3.10;;;2.73;;
5412;SDS011;2729;50.056;8.678;2023-04-25T14:01:22;3.53;;;2.50;;
5412;SDS011;2729;50.056;8.678;2023-04-25T14:03:48;5.47;;;2.27;;
5412;SDS011;2729;50.056;8.678;2023-04-25T14:06:14;3.13;;;2.23;;
5412;SDS011;2729;50.056;8.678;2023-04-25T14:08:46;3.60;;;3.20;;
5412;SDS011;2729;50.056;8.678;2023-04-25T14:11:12;5.50;;;2.57;;
5412;SDS011;2729;50.056;8.678;2023-04-25T14:13:38;14.83;;;2.73;;
5412;SDS011;2729;50.056;8.678;2023-04-25T14:16:04;2.30;;;2.20;;
5412;SDS011;2729;50.056;8.678;2023-04-25T14:18:30;4.03;;;2.20;;
5412;SDS011;2729;50.056;8.678;2023-04-25T14:20:56;2.53;;;2.33;;
5412;SDS011;2729;50.056;8.678;2023-04-25T14:23:22;6.33;;;2.43;;
5412;SDS011;2729;50.056;8.678;2023-04-25T14:25:48;3.37;;;2.17;;
5412;SDS011;2729;50.056;8.678;2023-04-25T14:28:14;3.00;;;1.87;;
5412;SDS011;2729;50.056;8.678;2023-04-25T14:30:40;4.37;;;2.10;;
5412;SDS011;2729;50.056;8.678;2023-04-25T14:33:06;4.60;;;2.00;;
5412;SDS011;2729;50.056;8.678;2023-04-25T14:35:32;12.90;;;2.40;;
5412;SDS011;2729;50.056;8.678;2023-04-25T14:37:58;2.23;;;1.80;;
5412;SDS011;2729;50.056;8.678;2023-04-25T14:40:25;2.40;;;1.90;;
5412;SDS011;2729;50.056;8.678;2023-04-25T14:42:51;2.87;;;1.90;;
5412;SDS011;2729;50.056;8.678;2023-04-25T14:45:17;2.20;;;1.90;;
5412;SDS011;2729;50.056;8.678;2023-04-25T14:47:43;2.90;;;2.20;;
5412;SDS011;2729;50.056;8.678;2023-04-25T14:50:09;2.67;;;2.33;;
5412;SDS011;2729;50.056;8.678;2023-04-25T14:52:35;2.40;;;1.93;;
5412;SDS011;2729;50.056;8.678;2023-04-25T14:55:01;1.73;;;1.50;;
5412;SDS011;2729;50.056;8.678;2023-04-25T14:57:31;2.03;;;1.93;;
5412;SDS011;2729;50.056;8.678;2023-04-25T14:59:57;4.60;;;1.90;;
5412;SDS011;2729;50.056;8.678;2023-04-25T15:02:24;3.70;;;1.80;;
5412;SDS011;2729;50.056;8.678;2023-04-25T15:04:50;6.67;;;2.27;;
5412;SDS011;2729;50.056;8.678;2023-04-25T15:07:16;3.03;;;1.80;;
5412;SDS011;2729;50.056;8.678;2023-04-25T15:09:42;5.10;;;2.03;;
5412;SDS011;2729;50.056;8.678;2023-04-25T15:12:07;3.77;;;2.17;;
5412;SDS011;2729;50.056;8.678;2023-04-25T15:14:34;2.30;;;1.83;;
5412;SDS011;2729;50.056;8.678;2023-04-25T15:17:00;5.13;;;2.33;;
5412;SDS011;2729;50.056;8.678;2023-04-25T15:19:26;2.90;;;1.63;;
5412;SDS011;2729;50.056;8.678;2023-04-25T15:21:52;4.60;;;2.00;;
5412;SDS011;2729;50.056;8.678;2023-04-25T15:24:18;2.77;;;1.87;;
5412;SDS011;2729;50.056;8.678;2023-04-25T15:26:44;3.40;;;2.03;;
5412;SDS011;2729;50.056;8.678;2023-04-25T15:29:11;1.80;;;1.70;;
5412;SDS011;2729;50.056;8.678;2023-04-25T15:31:37;6.93;;;2.10;;